KHSB

Harrisburg-Raleigh Airport

Harrisburg, Illinois, USA
METAR KHSB 170555Z AUTO 18005KT 10SM CLR 06/00 A3014 RMK AO2 T00600000 10081 20026 401231005
Observed Flight Rules
Dec-17 @ 05:55 UTC (25 minutes ago) Visual Flight Rules
Wind Visibility Clouds
180° at 5 knots 10 miles
  • Clear skies
Temperatures Readings
Current 6°C / 43°F
Dewpoint 0°C / 32°F
Humidity 66%
Altimeter 30.14" Hg
Pressure 1021 hPa
Elevation 121
METAR KHSB 170555Z AUTO 18005KT 10SM CLR 06/00 A3014 RMK AO2 T00600000 10081 20026 401231005
Observed Flight Rules
Dec-17 @ 05:55 UTC
(25 minutes ago)
VFR
Wind Visibility
180° at 5 knots 10 miles
Clouds
  • Clear skies
Temperature Dewpoint
6°C / 43°F 0°C / 32°F
Humidity Altimeter Pressure
66% 30.14" Hg 1021 hPa